createdAt,value
2023-05-15T00:00:15.221Z,97.51
2023-05-15T00:01:15.214Z,97.00
2023-05-15T00:02:15.278Z,97.31
2023-05-15T00:03:15.343Z,96.50
2023-05-15T00:04:15.258Z,97.11
2023-05-15T00:05:15.240Z,96.80
2023-05-15T00:06:15.238Z,98.22
2023-05-15T00:07:15.213Z,96.90
2023-05-15T00:08:15.213Z,97.61
2023-05-15T00:09:15.216Z,97.71
2023-05-15T00:10:15.212Z,97.51
2023-05-15T00:11:15.217Z,97.71
2023-05-15T00:12:15.215Z,98.12
2023-05-15T00:13:15.224Z,96.90
2023-05-15T00:14:15.212Z,97.20
2023-05-15T00:15:15.218Z,96.80
2023-05-15T00:16:15.287Z,97.71
2023-05-15T00:17:15.218Z,97.61
2023-05-15T00:18:15.287Z,97.41
2023-05-15T00:19:15.361Z,97.51
2023-05-15T00:20:15.218Z,97.61
2023-05-15T00:21:15.219Z,97.71
2023-05-15T00:22:15.248Z,96.95
2023-05-15T00:23:15.218Z,97.00
2023-05-15T00:24:15.226Z,96.70
2023-05-15T00:25:15.229Z,96.39
2023-05-15T00:26:15.222Z,96.90
2023-05-15T00:27:15.226Z,96.70
2023-05-15T00:28:15.228Z,97.05
2023-05-15T00:29:15.220Z,97.05
2023-05-15T00:30:15.219Z,97.71
2023-05-15T00:31:15.237Z,98.27
2023-05-15T00:32:15.240Z,97.86
2023-05-15T00:33:15.224Z,97.76
2023-05-15T00:34:15.221Z,98.47
2023-05-15T00:35:15.228Z,98.52
2023-05-15T00:36:15.223Z,98.01
2023-05-15T00:37:15.228Z,98.21
2023-05-15T00:38:15.243Z,98.01
2023-05-15T00:39:15.228Z,98.21
2023-05-15T00:40:15.222Z,97.80
2023-05-15T00:41:15.229Z,98.56
2023-05-15T00:42:15.231Z,99.07
2023-05-15T00:43:15.258Z,98.46
2023-05-15T00:44:15.232Z,98.16
2023-05-15T00:45:15.230Z,98.26
2023-05-15T00:46:15.225Z,98.05
2023-05-15T00:47:15.292Z,98.16
2023-05-15T00:48:15.236Z,98.05
2023-05-15T00:49:15.235Z,98.32
2023-05-15T00:50:15.239Z,98.11
2023-05-15T00:51:15.241Z,97.50
2023-05-15T00:52:15.232Z,97.91
2023-05-15T00:53:15.230Z,97.80
2023-05-15T00:54:15.274Z,97.60
2023-05-15T00:55:15.238Z,97.30
2023-05-15T00:56:15.230Z,97.09
2023-05-15T00:57:15.231Z,97.09
2023-05-15T00:58:15.233Z,96.89
2023-05-15T00:59:15.233Z,97.09
2023-05-15T01:00:15.231Z,97.30
2023-05-15T01:01:15.266Z,96.99
2023-05-15T01:02:15.264Z,97.09
2023-05-15T01:03:15.298Z,97.09
2023-05-15T01:04:15.232Z,97.71
2023-05-15T01:05:15.243Z,97.91
2023-05-15T01:06:15.233Z,97.60
2023-05-15T01:07:15.242Z,98.26
2023-05-15T01:08:15.233Z,98.16
2023-05-15T01:09:15.249Z,98.16
2023-05-15T01:10:15.251Z,98.46
2023-05-15T01:11:15.236Z,99.99
2023-05-15T01:12:15.236Z,99.99
2023-05-15T01:13:15.233Z,99.99
2023-05-15T01:14:15.230Z,99.99
2023-05-15T01:15:15.233Z,99.93
2023-05-15T01:16:15.236Z,99.99
2023-05-15T01:17:15.230Z,99.99
2023-05-15T01:18:15.323Z,99.99
2023-05-15T01:19:15.343Z,99.99
2023-05-15T01:20:15.237Z,99.99
2023-05-15T01:21:15.236Z,99.98
2023-05-15T01:22:15.230Z,99.57
2023-05-15T01:23:15.235Z,99.99
2023-05-15T01:24:15.229Z,99.93
2023-05-15T01:25:15.235Z,99.99
2023-05-15T01:26:15.255Z,99.83
2023-05-15T01:27:15.233Z,99.73
2023-05-15T01:28:15.246Z,99.99
2023-05-15T01:29:15.233Z,99.99
2023-05-15T01:30:15.230Z,99.99
2023-05-15T01:31:15.236Z,99.99
2023-05-15T01:32:17.772Z,99.88
2023-05-15T01:33:15.309Z,99.99
2023-05-15T01:34:15.241Z,99.77
2023-05-15T01:35:15.231Z,99.99
2023-05-15T01:36:15.236Z,99.99
2023-05-15T01:37:15.234Z,99.99
2023-05-15T01:38:15.234Z,99.99
2023-05-15T01:39:15.236Z,99.83
2023-05-15T01:40:15.233Z,99.22
2023-05-15T01:41:15.235Z,99.32
2023-05-15T01:42:15.255Z,99.83
2023-05-15T01:43:15.234Z,99.52
2023-05-15T01:44:15.243Z,99.32
2023-05-15T01:45:15.235Z,99.63
2023-05-15T01:46:15.265Z,99.42
2023-05-15T01:47:15.237Z,98.97
2023-05-15T01:48:15.232Z,99.78
2023-05-15T01:49:15.227Z,99.32
2023-05-15T01:50:15.248Z,99.11
2023-05-15T01:51:15.239Z,99.73
2023-05-15T01:52:15.239Z,99.42
2023-05-15T01:53:15.234Z,99.42
2023-05-15T01:54:15.228Z,99.22
2023-05-15T01:55:15.241Z,99.11
2023-05-15T01:56:15.227Z,99.22
2023-05-15T01:57:15.552Z,99.32
2023-05-15T01:58:15.298Z,99.52
2023-05-15T01:59:15.234Z,99.73
2023-05-15T02:00:15.229Z,99.52
2023-05-15T02:01:15.262Z,99.88
2023-05-15T02:02:15.227Z,99.99
2023-05-15T02:03:15.287Z,99.88
2023-05-15T02:04:15.228Z,99.99
2023-05-15T02:05:15.237Z,99.99
2023-05-15T02:06:15.232Z,99.99
2023-05-15T02:07:15.231Z,99.92
2023-05-15T02:08:15.229Z,99.99
2023-05-15T02:09:15.227Z,99.99
2023-05-15T02:10:15.241Z,99.99
2023-05-15T02:11:15.238Z,99.99
2023-05-15T02:12:15.245Z,99.99
2023-05-15T02:13:15.236Z,99.99
2023-05-15T02:14:15.247Z,99.99
2023-05-15T02:15:15.229Z,99.99
2023-05-15T02:16:15.263Z,99.99
2023-05-15T02:17:15.248Z,99.99
2023-05-15T02:18:15.228Z,99.99
2023-05-15T02:19:15.296Z,99.99
2023-05-15T02:20:15.229Z,99.99
2023-05-15T02:21:15.248Z,99.99
2023-05-15T02:22:15.226Z,99.99
2023-05-15T02:23:15.241Z,99.99
2023-05-15T02:24:15.228Z,99.99
2023-05-15T02:25:15.226Z,99.99
2023-05-15T02:26:15.227Z,99.99
2023-05-15T02:27:15.229Z,99.99
2023-05-15T02:28:15.228Z,99.99
2023-05-15T02:29:15.232Z,99.99
2023-05-15T02:30:15.249Z,99.99
2023-05-15T02:31:15.251Z,99.99
2023-05-15T02:32:15.259Z,99.99
2023-05-15T02:33:15.234Z,99.99
2023-05-15T02:34:15.223Z,99.99
2023-05-15T02:35:15.237Z,99.99
2023-05-15T02:36:15.228Z,99.99
2023-05-15T02:37:15.231Z,99.99
2023-05-15T02:38:15.223Z,99.99
2023-05-15T02:39:15.228Z,99.99
2023-05-15T02:40:15.234Z,99.99
2023-05-15T02:41:15.225Z,99.99
2023-05-15T02:42:15.224Z,99.99
2023-05-15T02:43:15.226Z,99.99
2023-05-15T02:44:15.220Z,99.99
2023-05-15T02:45:15.230Z,99.99
2023-05-15T02:46:15.312Z,99.99
2023-05-15T02:47:15.237Z,99.99
2023-05-15T02:48:15.226Z,99.99
2023-05-15T02:49:15.223Z,99.99
2023-05-15T02:50:15.234Z,99.99
2023-05-15T02:51:15.232Z,99.99
2023-05-15T02:52:15.246Z,99.99
2023-05-15T02:53:15.223Z,99.87
2023-05-15T02:54:15.291Z,99.56
2023-05-15T02:55:15.221Z,99.99
2023-05-15T02:56:15.227Z,99.77
2023-05-15T02:57:15.239Z,99.66
2023-05-15T02:58:15.218Z,99.77
2023-05-15T02:59:15.227Z,99.99
2023-05-15T03:00:15.223Z,99.36
2023-05-15T03:01:15.269Z,99.46
2023-05-15T03:02:15.311Z,99.56
2023-05-15T03:03:15.226Z,99.16
2023-05-15T03:04:15.254Z,99.26
2023-05-15T03:05:15.242Z,99.46
2023-05-15T03:06:15.220Z,99.81
2023-05-15T03:07:15.221Z,99.99
2023-05-15T03:08:15.211Z,99.99
2023-05-15T03:09:15.223Z,99.99
2023-05-15T03:10:15.221Z,99.99
2023-05-15T03:11:15.224Z,99.99
2023-05-15T03:12:15.213Z,99.99
2023-05-15T03:13:15.224Z,99.99
2023-05-15T03:14:15.213Z,99.77
2023-05-15T03:15:15.216Z,99.99
2023-05-15T03:16:15.215Z,99.99
2023-05-15T03:17:15.280Z,99.99
2023-05-15T03:18:17.262Z,99.99
2023-05-15T03:19:15.375Z,99.99
2023-05-15T03:20:15.226Z,99.99
2023-05-15T03:21:15.209Z,99.99
2023-05-15T03:22:15.217Z,99.99
2023-05-15T03:23:15.213Z,99.99
2023-05-15T03:24:15.220Z,99.99
2023-05-15T03:25:15.209Z,99.99
2023-05-15T03:26:15.220Z,99.99
2023-05-15T03:27:15.211Z,99.99
2023-05-15T03:28:15.218Z,99.99
2023-05-15T03:29:15.211Z,99.99
2023-05-15T03:30:15.212Z,99.99
2023-05-15T03:31:15.227Z,99.99
2023-05-15T03:32:15.212Z,99.99
2023-05-15T03:33:15.207Z,99.99
2023-05-15T03:34:15.233Z,99.99
2023-05-15T03:35:15.220Z,99.99
2023-05-15T03:36:15.211Z,99.99
2023-05-15T03:37:15.212Z,99.99
2023-05-15T03:38:15.210Z,99.99
2023-05-15T03:39:15.217Z,99.99
2023-05-15T03:40:15.207Z,99.99
2023-05-15T03:41:15.208Z,99.99
2023-05-15T03:42:15.221Z,99.99
2023-05-15T03:43:15.247Z,99.99
2023-05-15T03:44:15.210Z,99.99
2023-05-15T03:45:15.211Z,99.99
2023-05-15T03:46:15.691Z,99.99
2023-05-15T03:47:15.204Z,99.99
2023-05-15T03:48:47.078Z,99.99
2023-05-15T03:49:47.100Z,99.99
2023-05-15T03:50:47.087Z,99.99
2023-05-15T03:51:47.084Z,99.99
2023-05-15T03:52:47.080Z,99.99
2023-05-15T03:53:47.078Z,99.99
2023-05-15T03:54:47.075Z,99.99
2023-05-15T03:55:47.084Z,99.99
2023-05-15T03:56:47.080Z,99.99
2023-05-15T03:57:47.086Z,99.99
2023-05-15T03:58:47.080Z,99.99
2023-05-15T03:59:47.082Z,99.99
2023-05-15T04:00:47.096Z,99.99
2023-05-15T04:02:02.761Z,99.99
2023-05-15T04:02:47.278Z,99.99
2023-05-15T04:03:47.084Z,99.99
2023-05-15T04:04:47.108Z,99.99
2023-05-15T04:05:47.103Z,99.99
2023-05-15T04:06:47.076Z,99.99
2023-05-15T04:07:47.079Z,99.99
2023-05-15T04:08:47.076Z,99.99
2023-05-15T04:09:47.085Z,99.99
2023-05-15T04:10:47.074Z,99.99
2023-05-15T04:11:47.076Z,99.99
2023-05-15T04:12:47.074Z,99.99
2023-05-15T04:13:47.080Z,99.99
2023-05-15T04:14:47.081Z,99.99
2023-05-15T04:15:47.073Z,99.99
2023-05-15T04:16:47.155Z,99.99
2023-05-15T04:17:47.111Z,99.99
2023-05-15T04:18:47.138Z,99.99
2023-05-15T04:19:47.080Z,99.99
2023-05-15T04:20:47.076Z,99.99
2023-05-15T04:21:47.099Z,99.99
2023-05-15T04:22:47.068Z,99.99
2023-05-15T04:23:47.074Z,99.99
2023-05-15T04:24:47.067Z,99.99
2023-05-15T04:25:47.111Z,99.99
2023-05-15T04:26:47.106Z,99.99
2023-05-15T04:27:47.094Z,99.99
2023-05-15T04:29:00.228Z,99.99
2023-05-15T04:29:47.071Z,99.99
2023-05-15T04:30:47.066Z,99.99
2023-05-15T04:31:47.158Z,99.99
2023-05-15T04:32:47.118Z,99.99
2023-05-15T04:33:48.227Z,99.99
2023-05-15T04:34:47.064Z,99.99
2023-05-15T04:35:47.072Z,99.99
2023-05-15T04:36:47.064Z,99.99
2023-05-15T04:37:47.169Z,99.99
2023-05-15T04:38:47.061Z,99.99
2023-05-15T04:39:47.072Z,99.99
2023-05-15T04:40:47.170Z,99.99
2023-05-15T04:41:47.069Z,99.99
2023-05-15T04:42:47.066Z,99.99
2023-05-15T04:43:47.068Z,99.99
2023-05-15T04:44:47.060Z,99.99
2023-05-15T04:45:47.097Z,99.99
2023-05-15T04:46:47.064Z,99.99
2023-05-15T04:47:47.077Z,99.99
2023-05-15T04:48:47.068Z,99.99
2023-05-15T04:49:47.068Z,99.99
2023-05-15T04:50:47.058Z,99.99
2023-05-15T04:51:47.067Z,99.99
2023-05-15T04:52:47.062Z,99.99
2023-05-15T04:53:47.090Z,99.99
2023-05-15T04:54:47.058Z,99.99
2023-05-15T04:55:47.063Z,99.99
2023-05-15T04:56:47.057Z,99.99
2023-05-15T04:57:47.058Z,99.99
2023-05-15T04:58:47.058Z,99.99
2023-05-15T04:59:47.069Z,99.99
2023-05-15T05:00:47.060Z,99.99
2023-05-15T05:01:47.159Z,99.99
2023-05-15T05:02:47.127Z,99.99
2023-05-15T05:03:47.089Z,99.99
2023-05-15T05:04:47.056Z,99.99
2023-05-15T05:05:47.064Z,99.35
2023-05-15T05:06:47.058Z,99.99
2023-05-15T05:07:47.062Z,99.51
2023-05-15T05:08:47.060Z,99.01
2023-05-15T05:09:47.094Z,98.54
2023-05-15T05:10:47.058Z,98.70
2023-05-15T05:11:47.066Z,98.80
2023-05-15T05:12:47.061Z,98.09
2023-05-15T05:13:47.066Z,98.19
2023-05-15T05:14:47.068Z,98.39
2023-05-15T05:15:47.076Z,97.74
2023-05-15T05:16:47.060Z,98.45
2023-05-15T05:17:47.115Z,98.35
2023-05-15T05:18:47.117Z,98.35
2023-05-15T05:19:47.067Z,98.45
2023-05-15T05:20:47.065Z,98.55
2023-05-15T05:21:47.081Z,99.46
2023-05-15T05:22:47.068Z,98.75
2023-05-15T05:23:47.075Z,98.50
2023-05-15T05:24:47.063Z,99.87
2023-05-15T05:25:47.094Z,99.99
2023-05-15T05:26:47.075Z,99.99
2023-05-15T05:27:47.065Z,99.99
2023-05-15T05:28:47.065Z,99.99
2023-05-15T05:29:47.062Z,99.99
2023-05-15T05:30:47.066Z,99.01
2023-05-15T05:31:47.199Z,99.21
2023-05-15T05:32:47.138Z,99.99
2023-05-15T05:33:47.061Z,99.99
2023-05-15T05:34:47.068Z,99.52
2023-05-15T05:35:47.069Z,99.92
2023-05-15T05:36:47.065Z,99.99
2023-05-15T05:37:47.070Z,99.32
2023-05-15T05:38:47.065Z,99.87
2023-05-15T05:39:47.091Z,99.57
2023-05-15T05:40:47.064Z,99.27
2023-05-15T05:41:47.093Z,99.87
2023-05-15T05:42:47.062Z,99.99
2023-05-15T05:43:47.068Z,99.99
2023-05-15T05:44:47.060Z,99.99
2023-05-15T05:45:47.066Z,99.99
2023-05-15T05:46:47.101Z,99.99
2023-05-15T05:47:47.095Z,99.99
2023-05-15T05:48:47.062Z,99.99
2023-05-15T05:49:47.071Z,99.73
2023-05-15T05:50:47.060Z,99.02
2023-05-15T05:51:47.077Z,99.42
2023-05-15T05:52:47.068Z,99.07
2023-05-15T05:53:47.076Z,98.67
2023-05-15T05:54:47.063Z,99.58
2023-05-15T05:55:47.061Z,98.87
2023-05-15T05:56:47.071Z,98.87
2023-05-15T05:57:47.103Z,99.99
2023-05-15T05:58:47.060Z,99.53
2023-05-15T05:59:47.071Z,99.63
2023-05-15T06:00:47.073Z,99.99
2023-05-15T06:01:47.081Z,99.99
2023-05-15T06:02:47.193Z,99.99
2023-05-15T06:03:47.191Z,99.58
2023-05-15T06:04:47.064Z,98.58
2023-05-15T06:05:47.072Z,98.63
2023-05-15T06:06:47.063Z,98.02
2023-05-15T06:07:47.067Z,98.43
2023-05-15T06:08:47.060Z,99.24
2023-05-15T06:09:47.073Z,98.48
2023-05-15T06:10:47.069Z,98.08
2023-05-15T06:11:47.074Z,97.78
2023-05-15T06:12:47.067Z,97.58
2023-05-15T06:13:47.090Z,98.58
2023-05-15T06:14:47.066Z,98.79
2023-05-15T06:15:47.070Z,99.89
2023-05-15T06:16:47.100Z,99.39
2023-05-15T06:17:47.100Z,99.74
2023-05-15T06:18:47.096Z,99.95
2023-05-15T06:19:47.071Z,99.95
2023-05-15T06:20:47.077Z,99.24
2023-05-15T06:21:47.072Z,98.94
2023-05-15T06:22:47.066Z,98.94
2023-05-15T06:23:47.078Z,98.64
2023-05-15T06:24:47.068Z,97.93
2023-05-15T06:25:47.073Z,97.69
2023-05-15T06:26:47.078Z,96.68
2023-05-15T06:27:47.076Z,97.38
2023-05-15T06:28:47.074Z,97.13
2023-05-15T06:29:47.257Z,96.23
2023-05-15T06:30:47.096Z,96.53
2023-05-15T06:31:47.079Z,96.33
2023-05-15T06:32:47.173Z,96.93
2023-05-15T06:33:47.084Z,95.93
2023-05-15T06:34:47.076Z,96.08
2023-05-15T06:35:47.081Z,96.48
2023-05-15T06:36:47.085Z,96.39
2023-05-15T06:37:47.081Z,97.39
2023-05-15T06:38:47.079Z,95.98
2023-05-15T06:39:47.088Z,95.53
2023-05-15T06:40:47.095Z,96.64
2023-05-15T06:41:47.087Z,96.19
2023-05-15T06:42:47.088Z,95.49
2023-05-15T06:43:47.088Z,95.14
2023-05-15T06:44:47.088Z,95.34
2023-05-15T06:45:47.432Z,94.34
2023-05-15T06:46:47.182Z,93.49
2023-05-15T06:47:47.162Z,93.49
2023-05-15T06:48:47.096Z,92.49
2023-05-15T06:49:47.104Z,93.24
2023-05-15T06:50:47.093Z,91.94
2023-05-15T06:51:47.092Z,92.34
2023-05-15T06:52:47.098Z,92.34
2023-05-15T06:53:47.098Z,92.04
2023-05-15T06:54:47.103Z,91.54
2023-05-15T06:55:47.105Z,91.74
2023-05-15T06:56:47.093Z,91.24
2023-05-15T06:57:47.114Z,91.69
2023-05-15T06:58:47.115Z,92.10
2023-05-15T06:59:47.100Z,92.20
2023-05-15T07:00:47.117Z,91.24
2023-05-15T07:01:47.458Z,89.53
2023-05-15T07:02:47.159Z,89.49
2023-05-15T07:03:47.103Z,89.39
2023-05-15T07:04:47.170Z,88.89
2023-05-15T07:05:47.105Z,88.99
2023-05-15T07:06:47.112Z,88.29
2023-05-15T07:07:47.103Z,91.19
2023-05-15T07:08:47.104Z,92.30
2023-05-15T07:09:47.109Z,91.50
2023-05-15T07:10:47.105Z,91.69
2023-05-15T07:11:47.110Z,91.19
2023-05-15T07:12:47.112Z,90.99
2023-05-15T07:13:47.128Z,91.30
2023-05-15T07:14:47.105Z,91.94
2023-05-15T07:15:47.110Z,91.69
2023-05-15T07:16:47.165Z,91.60
2023-05-15T07:17:47.332Z,91.50
2023-05-15T07:18:47.199Z,90.89
2023-05-15T07:19:47.115Z,91.69
2023-05-15T07:20:47.112Z,92.00
2023-05-15T07:21:47.114Z,91.03
2023-05-15T07:22:55.549Z,92.10
2023-05-15T07:23:47.125Z,90.99
2023-05-15T07:24:47.126Z,91.60
2023-05-15T07:25:47.134Z,91.34
2023-05-15T07:26:58.237Z,91.80
2023-05-15T07:27:47.131Z,91.50
2023-05-15T07:28:47.118Z,92.30
2023-05-15T07:29:47.128Z,91.80
2023-05-15T07:30:47.133Z,91.80
2023-05-15T07:31:47.168Z,91.39
2023-05-15T07:32:47.139Z,90.69
2023-05-15T07:33:47.246Z,91.25
2023-05-15T07:34:47.179Z,90.75
2023-05-15T07:35:47.134Z,91.05
2023-05-15T07:36:47.139Z,91.25
2023-05-15T07:37:47.190Z,89.45
2023-05-15T07:38:47.139Z,89.85
2023-05-15T07:39:47.173Z,90.31
2023-05-15T07:40:47.130Z,89.40
2023-05-15T07:41:47.146Z,90.20
2023-05-15T07:42:47.129Z,89.30
2023-05-15T07:43:47.135Z,89.20
2023-05-15T07:44:49.462Z,88.56
2023-05-15T07:45:47.261Z,87.96
2023-05-15T07:46:47.180Z,88.52
2023-05-15T07:47:47.288Z,88.46
2023-05-15T07:48:47.134Z,90.22
2023-05-15T07:49:47.442Z,90.06
2023-05-15T07:50:47.137Z,88.76
2023-05-15T07:51:47.142Z,90.22
2023-05-15T07:52:47.135Z,89.62
2023-05-15T07:53:47.141Z,88.42
2023-05-15T07:54:47.147Z,90.42
2023-05-15T07:55:47.158Z,89.92
2023-05-15T07:56:47.188Z,89.72
2023-05-15T07:57:53.572Z,89.92
2023-05-15T07:58:47.155Z,89.02
2023-05-15T07:59:47.150Z,88.12
2023-05-15T08:00:47.154Z,87.71
2023-05-15T08:01:47.149Z,87.92
2023-05-15T08:02:47.272Z,89.22
2023-05-15T08:03:47.245Z,90.52
2023-05-15T08:04:47.158Z,89.02
2023-05-15T08:05:47.239Z,87.41
2023-05-15T08:06:47.157Z,89.42
2023-05-15T08:07:47.155Z,89.22
2023-05-15T08:08:47.158Z,90.22
2023-05-15T08:09:47.153Z,89.12
2023-05-15T08:10:47.163Z,89.72
2023-05-15T08:11:47.165Z,89.82
2023-05-15T08:12:47.160Z,90.52
2023-05-15T08:13:47.173Z,90.02
2023-05-15T08:14:47.309Z,90.92
2023-05-15T08:15:47.186Z,90.92
2023-05-15T08:16:47.164Z,89.92
2023-05-15T08:17:47.198Z,90.58
2023-05-15T08:18:47.182Z,90.92
2023-05-15T08:19:47.175Z,90.42
2023-05-15T08:20:47.174Z,89.52
2023-05-15T08:21:47.288Z,89.72
2023-05-15T08:22:47.175Z,88.12
2023-05-15T08:23:47.179Z,87.92
2023-05-15T08:24:47.178Z,89.02
2023-05-15T08:25:47.176Z,88.71
2023-05-15T08:26:47.178Z,88.32
2023-05-15T08:27:47.190Z,87.41
2023-05-15T08:28:47.180Z,87.62
2023-05-15T08:29:47.175Z,88.52
2023-05-15T08:30:47.188Z,88.62
2023-05-15T08:31:47.344Z,88.82
2023-05-15T08:32:47.227Z,89.42
2023-05-15T08:33:47.187Z,89.52
2023-05-15T08:34:47.185Z,88.42
2023-05-15T08:35:47.257Z,87.02
2023-05-15T08:36:47.189Z,88.52
2023-05-15T08:37:47.208Z,88.71
2023-05-15T08:38:47.188Z,87.82
2023-05-15T08:39:47.188Z,88.32
2023-05-15T08:40:47.217Z,87.71
2023-05-15T08:41:47.201Z,87.82
2023-05-15T08:42:47.197Z,87.02
2023-05-15T08:43:47.192Z,87.46
2023-05-15T08:44:47.200Z,85.91
2023-05-15T08:45:47.195Z,86.82
2023-05-15T08:46:47.206Z,86.01
2023-05-15T08:47:47.257Z,86.91
2023-05-15T08:48:47.222Z,88.21
2023-05-15T08:49:47.200Z,86.52
2023-05-15T08:50:47.230Z,87.21
2023-05-15T08:51:47.207Z,87.82
2023-05-15T08:52:47.206Z,87.71
2023-05-15T08:53:47.229Z,87.52
2023-05-15T08:54:48.453Z,87.92
2023-05-15T08:55:47.208Z,87.62
2023-05-15T08:56:47.217Z,87.92
2023-05-15T08:57:47.212Z,88.21
2023-05-15T08:58:47.217Z,88.21
2023-05-15T08:59:47.222Z,88.52
2023-05-15T09:00:47.218Z,87.71
2023-05-15T09:01:47.240Z,88.92
2023-05-15T09:02:47.279Z,89.22
2023-05-15T09:03:47.260Z,90.32
2023-05-15T09:04:47.219Z,90.32
2023-05-15T09:05:47.219Z,92.52
2023-05-15T09:06:47.225Z,94.12
2023-05-15T09:07:47.221Z,96.33
2023-05-15T09:08:47.224Z,96.23
2023-05-15T09:09:47.247Z,95.73
2023-05-15T09:10:47.230Z,96.37
2023-05-15T09:11:47.234Z,96.47
2023-05-15T09:12:47.250Z,96.58
2023-05-15T09:13:47.230Z,96.77
2023-05-15T09:14:47.241Z,95.37
2023-05-15T09:15:47.240Z,97.47
2023-05-15T09:16:47.318Z,96.08
2023-05-15T09:17:47.269Z,96.63
2023-05-15T09:18:47.283Z,97.08
2023-05-15T09:19:47.237Z,96.08
2023-05-15T09:20:47.239Z,96.67
2023-05-15T09:21:47.253Z,95.23
2023-05-15T09:22:47.248Z,97.47
2023-05-15T09:23:47.242Z,96.03
2023-05-15T09:24:47.246Z,97.53
2023-05-15T09:25:47.278Z,96.53
2023-05-15T09:26:47.248Z,98.03
2023-05-15T09:27:47.251Z,98.03
2023-05-15T09:28:47.246Z,95.62
2023-05-15T09:29:47.257Z,94.43
2023-05-15T09:30:47.250Z,96.83
2023-05-15T09:31:47.267Z,96.73
2023-05-15T09:32:47.319Z,97.43
2023-05-15T09:33:47.252Z,96.33
2023-05-15T09:34:47.271Z,95.83
2023-05-15T09:35:47.262Z,94.62
2023-05-15T09:36:47.264Z,96.43
2023-05-15T09:37:47.255Z,94.62
2023-05-15T09:38:47.279Z,95.03
2023-05-15T09:39:47.260Z,94.23
2023-05-15T09:40:47.266Z,94.23
2023-05-15T09:41:47.317Z,95.58
2023-05-15T09:42:47.267Z,94.18
2023-05-15T09:43:47.267Z,94.18
2023-05-15T09:44:47.267Z,94.18
2023-05-15T09:45:47.260Z,94.58
2023-05-15T09:46:47.386Z,95.28
2023-05-15T09:47:47.404Z,94.48
2023-05-15T09:48:47.377Z,94.18
2023-05-15T09:49:47.269Z,94.08
2023-05-15T09:50:47.275Z,94.18
2023-05-15T09:51:47.289Z,93.88
2023-05-15T09:52:47.292Z,94.28
2023-05-15T09:53:47.279Z,94.98
2023-05-15T09:54:50.135Z,95.58
2023-05-15T09:55:47.281Z,94.64
2023-05-15T09:56:47.302Z,94.58
2023-05-15T09:57:47.313Z,95.04
2023-05-15T09:58:47.336Z,94.64
2023-05-15T09:59:47.306Z,94.64
2023-05-15T10:00:49.471Z,93.84
2023-05-15T10:01:47.332Z,95.64
2023-05-15T10:02:47.323Z,94.73
2023-05-15T10:03:47.290Z,94.04
2023-05-15T10:04:47.301Z,93.84
2023-05-15T10:05:47.374Z,94.04
2023-05-15T10:06:47.296Z,92.24
2023-05-15T10:07:47.305Z,94.79
2023-05-15T10:08:47.305Z,94.04
2023-05-15T10:09:47.306Z,93.79
2023-05-15T10:10:47.299Z,94.19
2023-05-15T10:11:47.298Z,93.99
2023-05-15T10:12:48.411Z,92.09
2023-05-15T10:13:47.327Z,93.89
2023-05-15T10:14:47.312Z,94.69
2023-05-15T10:15:47.340Z,94.59
2023-05-15T10:16:47.314Z,94.29
2023-05-15T10:17:47.325Z,91.29
2023-05-15T10:18:47.353Z,91.89
2023-05-15T10:19:57.257Z,91.69
2023-05-15T10:20:47.368Z,92.85
2023-05-15T10:21:47.316Z,92.65
2023-05-15T10:22:47.325Z,91.05
2023-05-15T10:23:47.311Z,92.65
2023-05-15T10:24:47.317Z,91.55
2023-05-15T10:25:47.327Z,91.55
2023-05-15T10:26:47.323Z,92.25
2023-05-15T10:27:47.323Z,91.85
2023-05-15T10:28:47.329Z,91.64
2023-05-15T10:29:47.342Z,91.64
2023-05-15T10:30:47.323Z,91.85
2023-05-15T10:31:47.401Z,91.30
2023-05-15T10:32:47.362Z,91.20
2023-05-15T10:33:47.340Z,90.80
2023-05-15T10:34:47.333Z,91.60
2023-05-15T10:35:47.349Z,92.10
2023-05-15T10:36:47.337Z,90.11
2023-05-15T10:37:47.334Z,90.61
2023-05-15T10:38:47.339Z,90.20
2023-05-15T10:39:47.344Z,91.00
2023-05-15T10:40:47.344Z,89.01
2023-05-15T10:41:47.342Z,90.36
2023-05-15T10:42:47.345Z,89.61
2023-05-15T10:43:47.354Z,90.41
2023-05-15T10:44:47.348Z,89.36
2023-05-15T10:45:47.382Z,88.96
2023-05-15T10:46:47.411Z,87.76
2023-05-15T10:47:47.454Z,87.76
2023-05-15T10:48:47.358Z,87.37
2023-05-15T10:49:47.350Z,89.16
2023-05-15T10:50:47.354Z,87.66
2023-05-15T10:51:47.361Z,87.66
2023-05-15T10:52:47.362Z,86.77
2023-05-15T10:53:47.355Z,86.66
2023-05-15T10:54:47.368Z,87.76
2023-05-15T10:55:47.385Z,87.27
2023-05-15T10:56:47.885Z,86.82
2023-05-15T10:57:47.376Z,88.72
2023-05-15T10:58:47.374Z,87.02
2023-05-15T10:59:47.382Z,86.49
2023-05-15T11:00:47.432Z,86.58
2023-05-15T11:01:47.405Z,86.19
2023-05-15T11:02:47.401Z,86.49
2023-05-15T11:03:49.908Z,87.24
2023-05-15T11:04:47.450Z,86.44
2023-05-15T11:05:47.380Z,84.91
2023-05-15T11:06:47.376Z,84.91
2023-05-15T11:07:47.377Z,84.37
2023-05-15T11:08:47.381Z,85.06
2023-05-15T11:09:47.379Z,84.83
2023-05-15T11:10:47.405Z,84.92
2023-05-15T11:11:47.383Z,83.99
2023-05-15T11:12:47.388Z,84.09
2023-05-15T11:13:47.389Z,84.88
2023-05-15T11:14:47.397Z,84.48
2023-05-15T11:15:47.389Z,83.15
2023-05-15T11:16:47.470Z,84.25
2023-05-15T11:17:47.440Z,85.04
2023-05-15T11:18:47.412Z,84.01
2023-05-15T11:19:47.392Z,83.21
2023-05-15T11:20:47.401Z,83.07
2023-05-15T11:21:47.401Z,83.23
2023-05-15T11:22:47.404Z,84.52
2023-05-15T11:23:47.404Z,82.79
2023-05-15T11:24:47.415Z,82.50
2023-05-15T11:25:47.405Z,82.56
2023-05-15T11:26:47.411Z,82.22
2023-05-15T11:27:47.421Z,80.10
2023-05-15T11:28:47.438Z,80.89
2023-05-15T11:29:47.415Z,81.35
2023-05-15T11:30:47.426Z,80.76
2023-05-15T11:31:47.418Z,79.17
2023-05-15T11:32:47.497Z,78.50
2023-05-15T11:33:47.475Z,77.63
2023-05-15T11:34:47.430Z,77.36
2023-05-15T11:35:47.433Z,77.42
2023-05-15T11:36:47.444Z,76.20
2023-05-15T11:37:47.451Z,76.75
2023-05-15T11:38:47.447Z,74.74
2023-05-15T11:39:47.444Z,74.87
2023-05-15T11:40:47.447Z,73.81
2023-05-15T11:41:47.443Z,73.05
2023-05-15T11:42:47.452Z,70.98
2023-05-15T11:43:47.450Z,71.58
2023-05-15T11:44:47.454Z,70.00
2023-05-15T11:45:47.456Z,69.90
2023-05-15T11:46:47.502Z,68.92
2023-05-15T11:47:47.515Z,69.64
2023-05-15T11:48:47.477Z,71.12
2023-05-15T11:49:47.500Z,71.94
2023-05-15T11:50:47.498Z,69.38
2023-05-15T11:51:47.478Z,70.70
2023-05-15T11:52:47.498Z,69.51
2023-05-15T11:53:47.503Z,69.81
2023-05-15T11:54:47.493Z,70.07
2023-05-15T11:55:47.507Z,69.06
2023-05-15T11:56:47.508Z,69.28
2023-05-15T11:57:47.497Z,69.12
2023-05-15T11:58:47.513Z,67.87
2023-05-15T11:59:47.509Z,65.81
2023-05-15T12:00:47.528Z,64.67
2023-05-15T12:01:47.640Z,65.65
2023-05-15T12:02:47.634Z,61.83
2023-05-15T12:03:47.722Z,63.85
2023-05-15T12:04:47.559Z,63.76
2023-05-15T12:05:58.042Z,64.44
2023-05-15T12:06:47.563Z,62.58
2023-05-15T12:07:47.558Z,62.68
2023-05-15T12:08:47.549Z,63.76
2023-05-15T12:09:47.560Z,61.70
2023-05-15T12:10:47.561Z,62.95
2023-05-15T12:11:47.559Z,61.47
2023-05-15T12:12:47.575Z,60.99
2023-05-15T12:13:47.574Z,60.79
2023-05-15T12:14:47.604Z,60.92
2023-05-15T12:15:47.617Z,62.38
2023-05-15T12:16:47.655Z,62.48
2023-05-15T12:17:47.603Z,61.02
2023-05-15T12:18:47.683Z,60.75
2023-05-15T12:19:47.610Z,61.54
2023-05-15T12:20:47.619Z,60.58
2023-05-15T12:21:47.646Z,63.43
2023-05-15T12:22:47.627Z,60.42
2023-05-15T12:23:59.493Z,63.49
2023-05-15T12:24:47.633Z,63.65
2023-05-15T12:25:47.643Z,64.83
2023-05-15T12:26:47.646Z,63.00
2023-05-15T12:27:47.650Z,61.82
2023-05-15T12:28:47.656Z,61.95
2023-05-15T12:29:47.672Z,61.88
2023-05-15T12:30:47.688Z,64.34
2023-05-15T12:31:47.724Z,63.09
2023-05-15T12:32:47.735Z,64.99
2023-05-15T12:33:47.687Z,63.64
2023-05-15T12:34:47.692Z,64.62
2023-05-15T12:35:47.703Z,63.97
2023-05-15T12:36:47.698Z,64.79
2023-05-15T12:37:47.730Z,65.54
2023-05-15T12:38:47.717Z,66.82
2023-05-15T12:39:47.728Z,66.30
2023-05-15T12:40:47.723Z,66.49
2023-05-15T12:41:49.666Z,66.03
2023-05-15T12:42:47.734Z,64.95
2023-05-15T12:43:47.745Z,66.36
2023-05-15T12:44:47.744Z,65.17
2023-05-15T12:45:47.774Z,66.16
2023-05-15T12:46:47.779Z,67.25
2023-05-15T12:47:47.830Z,66.26
2023-05-15T12:48:47.774Z,66.16
2023-05-15T12:49:47.776Z,65.90
2023-05-15T12:50:47.783Z,66.29
2023-05-15T12:51:47.788Z,66.09
2023-05-15T12:52:47.792Z,66.33